createdAt,value
2022-09-15T00:00:51.255Z,95428.28
2022-09-15T00:03:48.590Z,95427.22
2022-09-15T00:06:45.418Z,95433.16
2022-09-15T00:09:42.215Z,95436.00
2022-09-15T00:12:39.099Z,95418.69
2022-09-15T00:15:36.513Z,95430.25
2022-09-15T00:18:35.493Z,95420.13
2022-09-15T00:21:35.544Z,95417.13
2022-09-15T00:24:32.742Z,95431.78
2022-09-15T00:27:30.972Z,95438.53
2022-09-15T00:30:27.853Z,95429.47
2022-09-15T00:33:24.777Z,95431.50
2022-09-15T00:36:23.637Z,95447.19
2022-09-15T00:39:20.600Z,95438.13
2022-09-15T00:42:22.757Z,95443.91
2022-09-15T00:45:19.580Z,95441.69
2022-09-15T00:48:21.982Z,95440.38
2022-09-15T00:51:23.994Z,95440.75
2022-09-15T00:54:43.673Z,95445.38
2022-09-15T00:57:54.085Z,95447.19
2022-09-15T01:01:01.364Z,95435.00
2022-09-15T01:03:59.097Z,95430.91
2022-09-15T01:07:03.176Z,95438.34
2022-09-15T01:10:07.206Z,95441.59
2022-09-15T01:13:11.493Z,95440.13
2022-09-15T01:16:31.783Z,95434.94
2022-09-15T01:20:18.379Z,95430.38
2022-09-15T01:24:11.923Z,95434.22
2022-09-15T01:27:50.862Z,95417.91
2022-09-15T01:31:05.138Z,95423.13
2022-09-15T01:34:18.503Z,95431.13
2022-09-15T01:37:26.782Z,95433.59
2022-09-15T01:40:28.316Z,95437.69
2022-09-15T01:43:27.217Z,95428.41
2022-09-15T01:46:27.735Z,95437.66
2022-09-15T01:49:30.394Z,95420.16
2022-09-15T01:52:29.095Z,95425.59
2022-09-15T01:55:55.318Z,95425.31
2022-09-15T01:58:52.378Z,95419.41
2022-09-15T02:02:01.701Z,95417.63
2022-09-15T02:05:01.670Z,95423.66
2022-09-15T02:08:12.630Z,95424.66
2022-09-15T02:11:20.738Z,95424.97
2022-09-15T02:14:39.152Z,95417.31
2022-09-15T02:17:54.093Z,95419.84
2022-09-15T02:20:57.702Z,95419.06
2022-09-15T02:24:03.508Z,95415.72
2022-09-15T02:27:02.768Z,95412.25
2022-09-15T02:30:08.690Z,95407.09
2022-09-15T02:33:09.381Z,95409.06
2022-09-15T02:36:07.487Z,95411.75
2022-09-15T02:39:11.233Z,95416.38
2022-09-15T02:42:08.087Z,95407.38
2022-09-15T02:45:06.571Z,95403.34
2022-09-15T02:48:04.250Z,95402.28
2022-09-15T02:51:01.245Z,95412.97
2022-09-15T02:53:58.212Z,95395.41
2022-09-15T02:56:55.012Z,95408.63
2022-09-15T03:00:10.433Z,95412.25
2022-09-15T03:03:07.235Z,95413.47
2022-09-15T03:06:21.124Z,95403.63
2022-09-15T03:09:17.946Z,95416.09
2022-09-15T03:12:14.763Z,95413.72
2022-09-15T03:15:14.486Z,95405.03
2022-09-15T03:18:13.127Z,95405.84
2022-09-15T03:21:18.032Z,95409.28
2022-09-15T03:24:15.372Z,95405.16
2022-09-15T03:27:12.423Z,95417.31
2022-09-15T03:30:10.857Z,95413.38
2022-09-15T03:33:07.717Z,95415.44
2022-09-15T03:36:05.297Z,95409.88
2022-09-15T03:39:02.128Z,95411.94
2022-09-15T03:41:58.983Z,95409.25
2022-09-15T03:44:55.778Z,95406.66
2022-09-15T03:47:52.554Z,95411.06
2022-09-15T03:50:49.687Z,95411.78
2022-09-15T03:53:46.664Z,95407.94
2022-09-15T03:56:43.965Z,95416.16
2022-09-15T03:59:40.770Z,95414.31
2022-09-15T04:02:37.554Z,95403.41
2022-09-15T04:05:35.158Z,95400.38
2022-09-15T04:08:32.022Z,95400.66
2022-09-15T04:11:28.933Z,95395.91
2022-09-15T04:14:25.805Z,95401.00
2022-09-15T04:17:22.684Z,95396.47
2022-09-15T04:20:19.515Z,95392.69
2022-09-15T04:23:16.754Z,95401.06
2022-09-15T04:26:26.021Z,95399.16
2022-09-15T04:29:23.329Z,95398.94
2022-09-15T04:32:21.090Z,95396.91
2022-09-15T04:35:17.995Z,95398.66
2022-09-15T04:38:14.809Z,95400.22
2022-09-15T04:41:13.021Z,95403.88
2022-09-15T04:44:09.856Z,95409.16
2022-09-15T04:47:07.375Z,95411.72
2022-09-15T04:50:04.696Z,95414.56
2022-09-15T04:53:01.500Z,95421.28
2022-09-15T04:56:08.003Z,95421.34
2022-09-15T04:59:04.849Z,95423.72
2022-09-15T05:02:01.673Z,95425.66
2022-09-15T05:04:58.724Z,95427.75
2022-09-15T05:07:55.530Z,95427.03
2022-09-15T05:10:53.189Z,95430.34
2022-09-15T05:13:50.431Z,95424.41
2022-09-15T05:16:47.235Z,95433.22
2022-09-15T05:19:44.052Z,95434.94
2022-09-15T05:22:41.991Z,95439.69
2022-09-15T05:25:38.929Z,95444.16
2022-09-15T05:28:37.661Z,95430.16
2022-09-15T05:31:35.059Z,95449.00
2022-09-15T05:34:32.017Z,95440.94
2022-09-15T05:37:28.808Z,95447.19
2022-09-15T05:40:25.641Z,95448.31
2022-09-15T05:43:22.483Z,95451.88
2022-09-15T05:46:20.483Z,95444.31
2022-09-15T05:49:17.394Z,95453.53
2022-09-15T05:52:14.377Z,95455.34
2022-09-15T05:55:11.368Z,95456.72
2022-09-15T05:58:08.503Z,95458.13
2022-09-15T06:01:13.278Z,95455.94
2022-09-15T06:04:10.147Z,95458.53
2022-09-15T06:07:07.017Z,95460.53
2022-09-15T06:10:04.871Z,95461.66
2022-09-15T06:13:01.696Z,95469.47
2022-09-15T06:16:04.419Z,95461.75
2022-09-15T06:19:01.944Z,95472.50
2022-09-15T06:21:58.770Z,95467.97
2022-09-15T06:24:55.570Z,95472.75
2022-09-15T06:27:52.388Z,95476.81
2022-09-15T06:30:49.523Z,95478.41
2022-09-15T06:33:51.092Z,95476.75
2022-09-15T06:36:48.194Z,95488.66
2022-09-15T06:39:45.039Z,95492.81
2022-09-15T06:42:41.913Z,95495.47
2022-09-15T06:45:38.714Z,95492.38
2022-09-15T06:48:37.115Z,95499.41
2022-09-15T06:51:36.136Z,95506.53
2022-09-15T06:54:33.052Z,95515.44
2022-09-15T06:57:29.868Z,95506.25
2022-09-15T07:00:27.216Z,95523.00
2022-09-15T07:03:24.113Z,95518.59
2022-09-15T07:06:22.303Z,95520.84
2022-09-15T07:09:19.577Z,95524.66
2022-09-15T07:12:16.405Z,95515.03
2022-09-15T07:15:13.233Z,95535.50
2022-09-15T07:18:10.053Z,95516.84
2022-09-15T07:21:14.287Z,95517.34
2022-09-15T07:24:11.206Z,95516.75
2022-09-15T07:27:08.858Z,95519.28
2022-09-15T07:30:08.551Z,95515.97
2022-09-15T07:33:11.310Z,95520.84
2022-09-15T07:36:09.320Z,95523.28
2022-09-15T07:39:06.535Z,95529.72
2022-09-15T07:42:04.406Z,95524.78
2022-09-15T07:45:01.200Z,95532.25
2022-09-15T07:47:58.051Z,95528.69
2022-09-15T07:50:55.535Z,95526.81
2022-09-15T07:53:53.824Z,95530.06
2022-09-15T07:56:50.734Z,95529.72
2022-09-15T07:59:47.535Z,95541.66
2022-09-15T08:02:44.377Z,95543.03
2022-09-15T08:05:45.429Z,95551.53
2022-09-15T08:08:45.945Z,95549.13
2022-09-15T08:11:42.912Z,95563.03
2022-09-15T08:14:39.787Z,95562.00
2022-09-15T08:17:36.580Z,95564.50
2022-09-15T08:20:33.831Z,95566.94
2022-09-15T08:23:30.655Z,95574.59
2022-09-15T08:26:29.669Z,95571.28
2022-09-15T08:29:26.484Z,95575.16
2022-09-15T08:32:23.410Z,95575.03
2022-09-15T08:35:20.307Z,95580.50
2022-09-15T08:38:17.129Z,95580.78
2022-09-15T08:41:33.914Z,95581.22
2022-09-15T08:44:59.471Z,95569.66
2022-09-15T08:48:03.444Z,95564.38
2022-09-15T08:51:05.719Z,95576.66
2022-09-15T08:54:13.336Z,95582.34
2022-09-15T08:57:18.240Z,95579.97
2022-09-15T09:00:16.842Z,95580.19
2022-09-15T09:03:31.005Z,95579.19
2022-09-15T09:06:46.512Z,95581.69
2022-09-15T09:10:01.553Z,95583.63
2022-09-15T09:13:22.939Z,95584.69
2022-09-15T09:16:52.392Z,95579.84
2022-09-15T09:20:22.787Z,95567.63
2022-09-15T09:23:25.034Z,95564.94
2022-09-15T09:26:21.880Z,95568.59
2022-09-15T09:29:26.751Z,95565.69
2022-09-15T09:32:27.574Z,95576.44
2022-09-15T09:35:45.809Z,95572.69
2022-09-15T09:38:46.876Z,95571.22
2022-09-15T09:41:44.138Z,95567.28
2022-09-15T09:44:41.642Z,95571.63
2022-09-15T09:47:40.742Z,95575.22
2022-09-15T09:50:47.872Z,95574.00
2022-09-15T09:53:53.448Z,95563.53
2022-09-15T09:56:52.376Z,95576.69
2022-09-15T09:59:50.721Z,95571.91
2022-09-15T10:02:47.787Z,95568.69
2022-09-15T10:05:59.356Z,95577.63
2022-09-15T10:09:05.666Z,95574.34
2022-09-15T10:12:04.358Z,95575.78
2022-09-15T10:15:05.836Z,95569.78
2022-09-15T10:18:03.151Z,95569.25
2022-09-15T10:21:07.483Z,95580.22
2022-09-15T10:24:35.196Z,95581.72
2022-09-15T10:27:36.800Z,95587.19
2022-09-15T10:30:33.642Z,95587.19
2022-09-15T10:33:35.474Z,95586.19
2022-09-15T10:36:32.475Z,95581.56
2022-09-15T10:39:38.839Z,95586.22
2022-09-15T10:42:49.525Z,95586.94
2022-09-15T10:45:58.812Z,95590.88
2022-09-15T10:49:24.160Z,95588.97
2022-09-15T10:52:52.472Z,95586.81
2022-09-15T10:56:34.900Z,95593.22
2022-09-15T10:59:45.679Z,95584.25
2022-09-15T11:02:53.336Z,95587.97
2022-09-15T11:06:18.741Z,95589.44
2022-09-15T11:09:29.348Z,95592.84
2022-09-15T11:12:59.004Z,95593.72
2022-09-15T11:16:51.193Z,95602.88
2022-09-15T11:20:14.876Z,95605.34
2022-09-15T11:23:37.419Z,95609.09
2022-09-15T11:26:42.210Z,95616.94
2022-09-15T11:29:53.795Z,95621.56
2022-09-15T11:33:04.339Z,95627.97
2022-09-15T11:36:35.121Z,95620.25
2022-09-15T11:39:41.370Z,95628.44
2022-09-15T11:42:53.278Z,95621.09
2022-09-15T11:45:56.618Z,95626.63
2022-09-15T11:49:15.207Z,95615.16
2022-09-15T11:52:46.694Z,95612.72
2022-09-15T11:56:21.813Z,95604.53
2022-09-15T11:59:39.112Z,95602.25
2022-09-15T12:03:24.800Z,95600.84
2022-09-15T12:06:46.248Z,95606.06
2022-09-15T12:09:43.343Z,95609.56
2022-09-15T12:12:44.058Z,95602.19
2022-09-15T12:15:41.012Z,95600.72
2022-09-15T12:18:52.415Z,95603.72
2022-09-15T12:22:21.216Z,95604.22
2022-09-15T12:25:35.830Z,95594.78
2022-09-15T12:29:24.241Z,95610.50
2022-09-15T12:32:33.319Z,95597.00
2022-09-15T12:35:32.089Z,95599.56
2022-09-15T12:38:30.411Z,95596.38
2022-09-15T12:41:28.452Z,95597.91
2022-09-15T12:44:32.041Z,95606.66
2022-09-15T12:47:49.196Z,95597.78
2022-09-15T12:51:05.197Z,95606.66
2022-09-15T12:54:07.387Z,95609.84
2022-09-15T12:57:06.318Z,95611.59
2022-09-15T13:00:21.162Z,95611.75
2022-09-15T13:06:40.624Z,95630.97
2022-09-15T13:10:14.406Z,95632.94
2022-09-15T13:13:40.708Z,95646.50
2022-09-15T13:16:40.444Z,95649.19
2022-09-15T13:19:44.368Z,95641.19
2022-09-15T13:22:48.444Z,95644.81
2022-09-15T13:25:46.402Z,95638.56
2022-09-15T13:28:44.174Z,95640.84
2022-09-15T13:32:08.484Z,95651.88
2022-09-15T13:35:24.363Z,95664.47
2022-09-15T13:38:35.960Z,95660.41
2022-09-15T13:42:40.103Z,95647.63
2022-09-15T13:45:40.177Z,95645.03
2022-09-15T13:49:01.443Z,95653.56
2022-09-15T13:52:25.543Z,95651.53
2022-09-15T13:55:27.827Z,95647.19
2022-09-15T14:01:43.572Z,95649.03
2022-09-15T14:04:40.480Z,95648.91
2022-09-15T14:07:37.379Z,95642.78
2022-09-15T14:10:50.743Z,95659.28
2022-09-15T14:13:50.304Z,95651.63
2022-09-15T14:16:50.544Z,95640.19
2022-09-15T14:19:50.229Z,95636.78
2022-09-15T14:22:49.905Z,95642.53
2022-09-15T14:25:46.942Z,95642.22
2022-09-15T14:28:55.291Z,95639.13
2022-09-15T14:31:53.304Z,95633.63
2022-09-15T14:34:51.024Z,95638.50
2022-09-15T14:37:50.191Z,95636.38
2022-09-15T14:40:52.503Z,95630.47
2022-09-15T14:43:49.312Z,95634.28
2022-09-15T14:46:46.673Z,95631.84
2022-09-15T14:49:43.565Z,95629.63
2022-09-15T14:53:01.788Z,95628.66
2022-09-15T14:56:19.069Z,95621.44
2022-09-15T14:59:33.618Z,95619.75
2022-09-15T15:03:02.900Z,95625.16
2022-09-15T15:06:30.170Z,95625.44
2022-09-15T15:09:47.146Z,95618.06
2022-09-15T15:12:51.240Z,95617.34
2022-09-15T15:15:48.472Z,95627.34
2022-09-15T15:18:45.361Z,95631.66
2022-09-15T15:21:44.370Z,95633.03
2022-09-15T15:24:44.807Z,95634.66
2022-09-15T15:27:42.688Z,95638.91
2022-09-15T15:30:45.291Z,95638.78
2022-09-15T15:33:56.639Z,95640.91
2022-09-15T15:37:04.126Z,95646.75
2022-09-15T15:40:07.290Z,95645.50
2022-09-15T15:43:22.551Z,95639.06
2022-09-15T15:46:55.713Z,95648.56
2022-09-15T15:50:13.280Z,95649.84
2022-09-15T15:53:11.186Z,95657.53
2022-09-15T15:56:08.375Z,95664.25
2022-09-15T15:59:05.937Z,95660.84
2022-09-15T16:02:03.236Z,95654.91
2022-09-15T16:05:00.086Z,95653.22
2022-09-15T16:08:05.781Z,95654.66
2022-09-15T16:11:03.014Z,95654.03
2022-09-15T16:13:59.817Z,95655.44
2022-09-15T16:16:59.621Z,95642.69
2022-09-15T16:19:56.430Z,95649.69
2022-09-15T16:22:53.239Z,95652.91
2022-09-15T16:26:05.169Z,95659.72
2022-09-15T16:29:02.103Z,95660.38
2022-09-15T16:31:59.388Z,95671.41
2022-09-15T16:34:56.350Z,95678.72
2022-09-15T16:37:53.201Z,95670.97
2022-09-15T16:40:51.156Z,95673.06
2022-09-15T16:43:47.989Z,95681.81
2022-09-15T16:46:45.352Z,95684.22
2022-09-15T16:49:42.644Z,95687.41
2022-09-15T16:52:39.497Z,95673.72
2022-09-15T16:55:40.991Z,95678.59
2022-09-15T16:58:38.250Z,95685.28
2022-09-15T17:01:35.527Z,95676.78
2022-09-15T17:04:32.802Z,95681.78
2022-09-15T17:07:29.586Z,95691.34
2022-09-15T17:10:26.537Z,95690.00
2022-09-15T17:13:29.319Z,95695.69
2022-09-15T17:16:27.380Z,95700.56
2022-09-15T17:19:24.201Z,95709.22
2022-09-15T17:22:21.303Z,95709.88
2022-09-15T17:25:35.599Z,95708.31
2022-09-15T17:28:36.446Z,95717.28
2022-09-15T17:31:33.346Z,95717.63
2022-09-15T17:34:30.240Z,95721.00
2022-09-15T17:37:27.028Z,95718.91
2022-09-15T17:40:23.949Z,95720.47
2022-09-15T17:43:23.863Z,95719.81
2022-09-15T17:46:20.832Z,95718.91
2022-09-15T17:49:17.684Z,95725.59
2022-09-15T17:52:14.541Z,95725.59
2022-09-15T17:55:15.959Z,95725.53
2022-09-15T17:58:13.001Z,95723.81
2022-09-15T18:01:14.699Z,95736.47
2022-09-15T18:04:11.719Z,95726.78
2022-09-15T18:07:09.211Z,95728.84
2022-09-15T18:10:06.413Z,95731.63
2022-09-15T18:13:05.268Z,95727.28
2022-09-15T18:16:09.984Z,95731.22
2022-09-15T18:19:06.815Z,95738.81
2022-09-15T18:22:04.637Z,95739.84
2022-09-15T18:25:01.515Z,95743.59
2022-09-15T18:27:59.989Z,95751.22
2022-09-15T18:31:01.354Z,95752.22
2022-09-15T18:33:58.627Z,95759.94
2022-09-15T18:36:58.439Z,95755.50
2022-09-15T18:39:55.318Z,95754.94
2022-09-15T18:42:52.451Z,95753.56
2022-09-15T18:45:50.322Z,95753.41
2022-09-15T18:48:47.236Z,95752.72
2022-09-15T18:51:52.090Z,95758.94
2022-09-15T18:54:49.069Z,95764.50
2022-09-15T18:57:51.926Z,95760.56
2022-09-15T19:00:49.072Z,95768.16
2022-09-15T19:03:46.257Z,95771.63
2022-09-15T19:06:43.139Z,95777.19
2022-09-15T19:09:39.938Z,95781.84
2022-09-15T19:12:37.266Z,95778.69
2022-09-15T19:15:34.628Z,95777.78
2022-09-15T19:18:32.470Z,95772.94
2022-09-15T19:21:29.271Z,95778.09
2022-09-15T19:24:31.941Z,95774.78
2022-09-15T19:27:28.891Z,95772.59
2022-09-15T19:30:25.710Z,95781.13
2022-09-15T19:33:22.527Z,95774.97
2022-09-15T19:36:28.069Z,95776.41
2022-09-15T19:39:25.535Z,95774.06
2022-09-15T19:42:22.375Z,95772.94
2022-09-15T19:45:19.202Z,95779.94
2022-09-15T19:48:16.011Z,95781.97
2022-09-15T19:51:14.412Z,95771.09
2022-09-15T19:54:11.604Z,95784.44
2022-09-15T19:57:08.582Z,95778.28
2022-09-15T20:00:07.177Z,95782.38
2022-09-15T20:03:04.014Z,95793.53
2022-09-15T20:06:04.269Z,95794.84
2022-09-15T20:09:01.192Z,95781.69
2022-09-15T20:11:58.556Z,95797.50
2022-09-15T20:14:55.352Z,95784.94
2022-09-15T20:17:52.174Z,95791.44
2022-09-15T20:20:49.081Z,95791.44
2022-09-15T20:23:45.940Z,95792.03
2022-09-15T20:26:43.791Z,95799.13
2022-09-15T20:29:40.723Z,95795.00
2022-09-15T20:32:37.520Z,95803.53
2022-09-15T20:35:34.299Z,95802.50
2022-09-15T20:38:33.312Z,95797.03
2022-09-15T20:41:33.891Z,95796.13
2022-09-15T20:44:30.691Z,95796.84
2022-09-15T20:47:27.491Z,95797.28
2022-09-15T20:50:25.206Z,95801.50
2022-09-15T20:53:22.231Z,95801.09
2022-09-15T20:56:24.644Z,95799.63
2022-09-15T20:59:21.422Z,95797.34
2022-09-15T21:02:18.319Z,95804.03
2022-09-15T21:05:15.220Z,95807.56
2022-09-15T21:08:13.013Z,95808.88
2022-09-15T21:11:11.583Z,95803.66
2022-09-15T21:14:15.405Z,95800.09
2022-09-15T21:17:12.222Z,95798.69
2022-09-15T21:20:09.540Z,95809.75
2022-09-15T21:23:07.274Z,95820.81
2022-09-15T21:26:07.777Z,95825.38
2022-09-15T21:29:04.568Z,95822.09
2022-09-15T21:32:02.263Z,95827.63
2022-09-15T21:35:00.104Z,95824.47
2022-09-15T21:38:00.535Z,95820.53
2022-09-15T21:40:57.588Z,95827.91
2022-09-15T21:43:55.859Z,95835.81
2022-09-15T21:46:52.894Z,95819.84
2022-09-15T21:49:50.604Z,95833.69
2022-09-15T21:52:47.418Z,95835.56
2022-09-15T21:55:44.217Z,95832.84
2022-09-15T21:58:43.130Z,95831.31
2022-09-15T22:01:40.805Z,95833.38
2022-09-15T22:04:38.295Z,95836.53
2022-09-15T22:07:35.151Z,95839.34
2022-09-15T22:10:31.968Z,95834.03
2022-09-15T22:13:28.816Z,95844.28
2022-09-15T22:16:26.223Z,95841.84
2022-09-15T22:19:23.115Z,95855.53
2022-09-15T22:22:19.924Z,95848.75
2022-09-15T22:25:21.694Z,95840.41
2022-09-15T22:28:18.756Z,95844.19
2022-09-15T22:31:18.829Z,95851.56
2022-09-15T22:34:15.648Z,95851.56
2022-09-15T22:37:12.490Z,95849.28
2022-09-15T22:40:10.071Z,95847.50
2022-09-15T22:43:07.017Z,95847.84
2022-09-15T22:46:05.055Z,95834.28
2022-09-15T22:49:02.301Z,95844.28
2022-09-15T22:51:59.134Z,95832.44
2022-09-15T22:54:56.021Z,95837.44
2022-09-15T22:57:52.807Z,95830.22
2022-09-15T23:00:49.847Z,95831.84
2022-09-15T23:03:55.659Z,95835.50
2022-09-15T23:06:52.496Z,95834.72
2022-09-15T23:09:49.344Z,95840.03
2022-09-15T23:12:46.155Z,95841.34
2022-09-15T23:15:43.803Z,95840.13
2022-09-15T23:18:40.597Z,95846.28
2022-09-15T23:21:37.394Z,95846.47
2022-09-15T23:24:34.210Z,95849.63
2022-09-15T23:27:31.120Z,95848.19
2022-09-15T23:30:27.929Z,95842.69
2022-09-15T23:33:26.888Z,95830.69
2022-09-15T23:36:23.777Z,95837.31
2022-09-15T23:39:20.590Z,95831.44
2022-09-15T23:42:19.064Z,95820.00
2022-09-15T23:45:16.074Z,95815.13
2022-09-15T23:48:14.301Z,95825.38
2022-09-15T23:51:11.304Z,95826.91
2022-09-15T23:54:08.126Z,95828.41
2022-09-15T23:57:04.959Z,95826.41
